Time;durP1;ratioP1;P1;durP2;ratioP2;P2;SDS_P1;SDS_P2;PMS_P1;PMS_P2;Temp;Humidity;BMP_temperature;BMP_pressure;BME280_temperature;BME280_humidity;BME280_pressure;Samples;Min_cycle;Max_cycle;Signal;HPM_P1;HPM_P2
2023/12/17 00:02:24;;;;;;;1.10;1.10;;;-0.40;99.90;;;;;;5046778;28;20219;-82
2023/12/17 00:04:50;;;;;;;1.37;1.27;;;-0.40;99.90;;;;;;5056460;28;20168;-82
2023/12/17 00:07:16;;;;;;;1.10;1.10;;;-0.50;99.90;;;;;;5047384;28;20196;-83
2023/12/17 00:09:41;;;;;;;0.90;0.90;;;-0.50;99.90;;;;;;5040762;28;20618;-83
2023/12/17 00:12:07;;;;;;;0.90;0.90;;;-0.50;99.90;;;;;;5020918;28;20187;-83
2023/12/17 00:14:34;;;;;;;0.90;0.90;;;-0.50;99.90;;;;;;5021171;28;20282;-84
2023/12/17 00:16:59;;;;;;;1.10;1.10;;;-0.40;99.90;;;;;;5034035;28;20183;-83
2023/12/17 00:19:25;;;;;;;1.23;1.13;;;-0.60;99.90;;;;;;5025957;28;20218;-84
2023/12/17 00:21:50;;;;;;;1.00;1.00;;;-0.70;99.90;;;;;;5023507;28;20192;-83
2023/12/17 00:24:17;;;;;;;0.90;0.90;;;-0.60;99.90;;;;;;5016527;28;20183;-84
2023/12/17 00:26:42;;;;;;;1.10;1.10;;;-0.50;99.90;;;;;;5033770;28;20222;-83
2023/12/17 00:29:08;;;;;;;1.10;1.10;;;-0.40;99.90;;;;;;5034875;28;20266;-83
2023/12/17 00:31:34;;;;;;;1.60;1.50;;;-0.50;99.90;;;;;;5037797;28;20172;-82
2023/12/17 00:34:00;;;;;;;1.50;1.40;;;-0.70;99.90;;;;;;5039401;28;20239;-83
2023/12/17 00:36:26;;;;;;;1.60;1.50;;;-0.60;99.90;;;;;;5038328;28;20264;-82
2023/12/17 00:38:51;;;;;;;1.90;1.80;;;-0.70;99.90;;;;;;5039834;28;20180;-82
2023/12/17 00:41:17;;;;;;;1.73;1.63;;;-0.60;99.90;;;;;;5032226;28;20224;-85
2023/12/17 00:43:43;;;;;;;1.40;1.30;;;-0.60;99.90;;;;;;5029008;28;20172;-84
2023/12/17 00:46:08;;;;;;;1.60;1.50;;;-0.50;99.90;;;;;;5029818;28;20295;-84
2023/12/17 00:48:34;;;;;;;1.50;1.40;;;-0.60;99.90;;;;;;5030753;28;20187;-84
2023/12/17 00:51:00;;;;;;;1.03;1.03;;;-0.70;99.90;;;;;;5047112;28;20225;-86
2023/12/17 00:53:25;;;;;;;0.80;0.80;;;-0.60;99.90;;;;;;5048273;28;20227;-85
2023/12/17 00:55:51;;;;;;;1.00;1.00;;;-0.50;99.90;;;;;;5046723;28;20191;-83
2023/12/17 00:58:17;;;;;;;1.10;1.10;;;-0.50;99.90;;;;;;5044062;28;20180;-83
2023/12/17 01:00:42;;;;;;;0.90;0.90;;;-0.50;99.90;;;;;;5043852;28;20192;-85
2023/12/17 01:03:08;;;;;;;1.00;1.00;;;-0.50;99.90;;;;;;5035114;28;20271;-83
2023/12/17 01:05:34;;;;;;;1.40;1.30;;;-0.50;99.90;;;;;;5024826;28;20647;-84
2023/12/17 01:07:59;;;;;;;1.30;1.20;;;-0.60;99.90;;;;;;5023109;28;20244;-84
2023/12/17 01:10:25;;;;;;;1.50;1.40;;;-0.80;99.90;;;;;;5023699;28;20172;-85
2023/12/17 01:12:50;;;;;;;1.00;1.00;;;-0.80;99.90;;;;;;5023159;28;20235;-84
2023/12/17 01:15:16;;;;;;;1.10;1.10;;;0.20;99.90;;;;;;5022221;28;20173;-83
2023/12/17 01:17:43;;;;;;;1.00;1.00;;;-0.60;99.90;;;;;;5022089;28;20173;-84
2023/12/17 01:20:09;;;;;;;1.17;1.13;;;-0.60;99.90;;;;;;5019845;28;20181;-82
2023/12/17 01:22:34;;;;;;;1.20;1.10;;;-0.70;99.90;;;;;;5021854;28;20208;-83
2023/12/17 01:25:00;;;;;;;1.00;1.00;;;-0.70;99.90;;;;;;5020164;28;20268;-85
2023/12/17 01:27:25;;;;;;;0.90;0.90;;;-0.60;99.90;;;;;;5015916;28;20358;-84
2023/12/17 01:29:51;;;;;;;0.90;0.90;;;-0.50;99.90;;;;;;5018145;28;20552;-84
2023/12/17 01:32:16;;;;;;;1.00;1.00;;;-0.50;99.90;;;;;;5019123;28;20654;-85
2023/12/17 01:34:42;;;;;;;1.13;1.10;;;-0.50;99.90;;;;;;5017608;28;20646;-83
2023/12/17 01:37:07;;;;;;;1.10;1.10;;;-0.50;99.90;;;;;;5017068;28;20203;-85
2023/12/17 01:39:33;;;;;;;1.40;1.30;;;-0.70;99.90;;;;;;5017457;28;20200;-84
2023/12/17 01:41:59;;;;;;;1.20;1.20;;;-0.70;99.90;;;;;;5018289;28;20205;-85
2023/12/17 01:44:25;;;;;;;1.30;1.20;;;-0.70;99.90;;;;;;5015722;28;20255;-84
2023/12/17 01:46:50;;;;;;;1.10;1.10;;;-0.60;99.90;;;;;;5016730;28;20617;-83
2023/12/17 01:49:16;;;;;;;1.47;1.37;;;-0.60;99.90;;;;;;5017668;28;20179;-84
2023/12/17 01:51:43;;;;;;;1.13;1.13;;;-0.70;99.90;;;;;;5018255;28;20227;-84
2023/12/17 01:54:09;;;;;;;1.30;1.20;;;-0.80;99.90;;;;;;5032931;28;20187;-81
2023/12/17 01:56:36;;;;;;;1.00;1.00;;;-0.80;99.90;;;;;;5027393;28;20207;-84
2023/12/17 01:59:02;;;;;;;1.00;1.00;;;-0.80;99.90;;;;;;5016064;28;20651;-84
2023/12/17 02:01:28;;;;;;;1.03;1.03;;;-0.80;99.90;;;;;;5015483;28;20235;-84
2023/12/17 02:03:55;;;;;;;1.00;1.00;;;-0.80;99.90;;;;;;5015889;28;20263;-84
2023/12/17 02:06:21;;;;;;;1.30;1.20;;;-0.80;99.90;;;;;;5015046;28;20288;-84
2023/12/17 02:08:46;;;;;;;1.40;1.30;;;-0.80;99.90;;;;;;5015359;28;20662;-85
2023/12/17 02:11:12;;;;;;;1.00;1.00;;;-0.80;99.90;;;;;;5016268;28;20177;-84
2023/12/17 02:13:37;;;;;;;1.10;1.10;;;-0.80;99.90;;;;;;5013538;28;20321;-84
2023/12/17 02:16:03;;;;;;;1.00;1.00;;;-0.90;99.90;;;;;;5015188;28;20192;-84
2023/12/17 02:18:29;;;;;;;1.00;1.00;;;-0.80;99.90;;;;;;5015053;28;20734;-84
2023/12/17 02:20:55;;;;;;;1.20;1.20;;;-0.10;99.90;;;;;;5016385;28;20188;-85
2023/12/17 02:23:21;;;;;;;1.00;1.00;;;-0.70;99.90;;;;;;5013004;28;20177;-83
2023/12/17 02:25:47;;;;;;;0.90;0.90;;;-0.70;99.90;;;;;;5014908;28;20638;-83
2023/12/17 02:28:12;;;;;;;1.10;1.10;;;-0.60;99.90;;;;;;5016639;28;20264;-84
2023/12/17 02:30:38;;;;;;;1.10;1.10;;;-0.60;99.90;;;;;;5014617;28;20183;-84
2023/12/17 02:33:03;;;;;;;1.00;1.00;;;-0.60;99.90;;;;;;5015299;28;20196;-84
2023/12/17 02:35:29;;;;;;;1.60;1.50;;;-0.60;99.90;;;;;;5014899;28;20196;-83
2023/12/17 02:37:54;;;;;;;1.20;1.13;;;-0.70;99.90;;;;;;5014378;28;20212;-84
2023/12/17 02:40:20;;;;;;;1.10;1.10;;;-0.70;99.90;;;;;;5014888;28;20188;-84
2023/12/17 02:42:45;;;;;;;1.67;1.57;;;-0.70;99.90;;;;;;5014651;28;20219;-84
2023/12/17 02:45:12;;;;;;;1.70;1.60;;;-0.70;99.90;;;;;;5013336;28;20207;-84
2023/12/17 02:47:38;;;;;;;1.10;1.10;;;-1.00;99.90;;;;;;5014091;28;20666;-84
2023/12/17 02:50:04;;;;;;;1.23;1.23;;;-0.90;99.90;;;;;;5013229;28;20176;-83
2023/12/17 02:52:29;;;;;;;1.10;1.10;;;-0.80;99.90;;;;;;5013507;28;20612;-84
2023/12/17 02:54:55;;;;;;;0.93;0.93;;;-0.80;99.90;;;;;;5014412;28;20180;-84
2023/12/17 02:57:24;;;;;;;1.17;1.10;;;0.00;99.90;;;;;;5014281;28;20246;-84
2023/12/17 02:59:52;;;;;;;1.63;1.53;;;-0.80;99.90;;;;;;5014110;28;20188;-84
2023/12/17 03:02:17;;;;;;;1.63;1.53;;;-0.80;99.90;;;;;;5014326;28;20204;-84
2023/12/17 03:04:43;;;;;;;2.00;1.90;;;-0.90;99.90;;;;;;5014672;28;20164;-84
2023/12/17 03:07:08;;;;;;;3.03;2.80;;;-1.00;99.90;;;;;;5012375;28;20188;-85
2023/12/17 03:09:34;;;;;;;2.37;2.17;;;-0.90;99.90;;;;;;5013709;28;20327;-83
2023/12/17 03:12:01;;;;;;;1.10;1.10;;;-1.00;99.90;;;;;;5012736;28;20184;-84
2023/12/17 03:14:27;;;;;;;1.60;1.50;;;-1.00;99.90;;;;;;5011246;28;20805;-84
2023/12/17 03:16:52;;;;;;;1.10;1.10;;;-0.90;99.90;;;;;;5012013;28;20255;-84
2023/12/17 03:19:18;;;;;;;1.00;1.00;;;-0.90;99.90;;;;;;5021418;28;20176;-83
2023/12/17 03:21:43;;;;;;;1.40;1.30;;;-0.80;99.90;;;;;;5037134;28;20192;-82
2023/12/17 03:24:09;;;;;;;1.80;1.70;;;-0.70;99.90;;;;;;5037328;28;20199;-82
2023/12/17 03:26:34;;;;;;;1.50;1.40;;;-0.90;99.90;;;;;;5036311;28;20188;-83
2023/12/17 03:29:00;;;;;;;1.20;1.20;;;-1.10;99.90;;;;;;5035481;28;20535;-85
2023/12/17 03:31:26;;;;;;;1.20;1.20;;;-1.00;99.90;;;;;;5026819;28;20173;-84
2023/12/17 03:33:51;;;;;;;1.10;1.10;;;-0.90;99.90;;;;;;5023305;28;20165;-85
2023/12/17 03:36:17;;;;;;;1.63;1.53;;;-0.90;99.90;;;;;;5024177;28;20212;-85
2023/12/17 03:38:44;;;;;;;1.40;1.30;;;-0.90;99.90;;;;;;5024554;28;20268;-85
2023/12/17 03:41:24;;;;;;;1.40;1.30;;;-1.00;99.90;;;;;;5023763;28;20200;-84
2023/12/17 03:43:51;;;;;;;1.50;1.40;;;-1.10;99.90;;;;;;5024665;28;20188;-83
2023/12/17 03:46:18;;;;;;;1.27;1.23;;;-1.20;99.90;;;;;;5024149;28;20204;-84
2023/12/17 03:48:44;;;;;;;1.07;1.07;;;-1.20;99.90;;;;;;5025221;28;20345;-85
2023/12/17 03:51:10;;;;;;;0.90;0.90;;;-1.10;99.90;;;;;;5026001;28;20216;-85
2023/12/17 03:53:36;;;;;;;1.30;1.20;;;-1.00;99.90;;;;;;5025889;28;20259;-84
2023/12/17 03:56:01;;;;;;;1.43;1.33;;;-1.10;99.90;;;;;;5025962;28;20280;-85
2023/12/17 03:58:27;;;;;;;2.00;1.80;;;-1.10;99.90;;;;;;5026388;28;20177;-84
2023/12/17 04:00:53;;;;;;;1.70;1.60;;;-1.10;99.90;;;;;;5026237;28;20199;-85
2023/12/17 04:03:19;;;;;;;1.20;1.20;;;-1.20;99.90;;;;;;5026164;28;20263;-85
2023/12/17 04:05:46;;;;;;;1.00;1.00;;;-1.20;99.90;;;;;;5026173;28;20211;-84
2023/12/17 04:08:11;;;;;;;0.90;0.90;;;-1.10;99.90;;;;;;5039606;28;20184;-81
2023/12/17 04:10:37;;;;;;;0.90;0.90;;;-1.10;99.90;;;;;;5040562;28;20169;-81
2023/12/17 04:13:02;;;;;;;0.90;0.90;;;-1.10;99.90;;;;;;5040479;28;20173;-81
2023/12/17 04:15:28;;;;;;;1.10;1.10;;;-1.10;99.90;;;;;;5040078;28;20169;-83
2023/12/17 04:17:53;;;;;;;1.10;1.10;;;-1.10;99.90;;;;;;5034068;28;20247;-84
2023/12/17 04:20:19;;;;;;;1.10;1.10;;;-1.20;99.90;;;;;;5031530;28;20180;-85
2023/12/17 04:22:45;;;;;;;1.23;1.13;;;-1.30;99.90;;;;;;5028814;28;20231;-85
2023/12/17 04:25:10;;;;;;;1.10;1.10;;;-1.30;99.90;;;;;;5029991;28;20176;-82
2023/12/17 04:27:36;;;;;;;1.10;1.10;;;-1.30;99.90;;;;;;5037526;28;20189;-84
2023/12/17 04:30:02;;;;;;;1.20;1.10;;;-1.40;99.90;;;;;;5038415;28;20180;-84
2023/12/17 04:32:28;;;;;;;1.00;1.00;;;-1.50;99.90;;;;;;5037426;28;20176;-83
2023/12/17 04:34:55;;;;;;;0.80;0.80;;;-1.50;99.90;;;;;;5022238;28;20180;-84
2023/12/17 04:37:22;;;;;;;0.83;0.83;;;-1.40;99.90;;;;;;5019416;28;20192;-84
2023/12/17 04:39:48;;;;;;;0.83;0.83;;;-1.40;99.90;;;;;;5018920;28;20208;-84
2023/12/17 04:42:14;;;;;;;1.00;1.00;;;-1.40;99.90;;;;;;5018785;28;20200;-84
2023/12/17 04:44:39;;;;;;;0.90;0.90;;;-1.40;99.90;;;;;;5017047;28;20587;-83
2023/12/17 04:47:05;;;;;;;0.90;0.90;;;-1.50;99.90;;;;;;5018246;28;20193;-84
2023/12/17 04:49:31;;;;;;;1.00;1.00;;;-2.00;99.90;;;;;;5020534;28;20191;-85
2023/12/17 04:51:56;;;;;;;1.00;1.00;;;-1.50;99.90;;;;;;5024458;28;20172;-85
2023/12/17 04:54:23;;;;;;;0.90;0.90;;;-1.50;99.90;;;;;;5027631;28;20180;-84
2023/12/17 04:56:49;;;;;;;1.60;1.50;;;-1.40;99.90;;;;;;5039317;28;20181;-82
2023/12/17 04:59:15;;;;;;;1.50;1.40;;;-1.40;99.90;;;;;;5039406;28;20196;-83
2023/12/17 05:01:40;;;;;;;1.17;1.17;;;-1.40;99.90;;;;;;5039715;28;20204;-82
2023/12/17 05:04:06;;;;;;;1.50;1.40;;;-1.40;99.90;;;;;;5038670;28;20173;-86
2023/12/17 05:06:31;;;;;;;1.50;1.40;;;-1.40;99.90;;;;;;5028484;28;20200;-85
2023/12/17 05:08:57;;;;;;;0.90;0.90;;;-1.50;99.90;;;;;;5028056;28;20284;-84
2023/12/17 05:11:22;;;;;;;1.00;1.00;;;-1.40;99.90;;;;;;5029144;28;20177;-85
2023/12/17 05:13:48;;;;;;;1.10;1.10;;;-1.30;99.90;;;;;;5029138;28;20176;-85
2023/12/17 05:16:13;;;;;;;1.00;1.00;;;-1.30;99.90;;;;;;5027957;28;20225;-85
2023/12/17 05:18:39;;;;;;;0.97;0.97;;;-1.40;99.90;;;;;;5027295;28;20168;-84
2023/12/17 05:21:07;;;;;;;0.90;0.90;;;-1.30;99.90;;;;;;5027501;28;20429;-84
2023/12/17 05:23:32;;;;;;;1.90;1.80;;;-1.30;99.90;;;;;;5027708;28;20685;-85
2023/12/17 05:25:59;;;;;;;1.70;1.60;;;-1.40;99.90;;;;;;5028086;28;20192;-84
2023/12/17 05:28:24;;;;;;;1.07;1.07;;;-1.50;99.90;;;;;;5027367;28;20402;-85
2023/12/17 05:30:50;;;;;;;1.50;1.40;;;-1.50;99.90;;;;;;5028562;28;20187;-84
2023/12/17 05:33:16;;;;;;;1.00;1.00;;;-1.60;99.90;;;;;;5027320;28;20260;-85
2023/12/17 05:35:42;;;;;;;1.63;1.53;;;-1.50;99.90;;;;;;5024940;28;20219;-85
2023/12/17 05:38:07;;;;;;;1.80;1.70;;;-1.20;99.90;;;;;;5025823;28;20187;-85
2023/12/17 05:40:33;;;;;;;1.37;1.27;;;-1.80;99.90;;;;;;5025252;28;20666;-85
2023/12/17 05:43:01;;;;;;;1.47;1.37;;;-1.70;99.90;;;;;;5016586;28;20638;-85
2023/12/17 05:45:26;;;;;;;1.40;1.30;;;-1.80;99.90;;;;;;5015370;28;20268;-85
2023/12/17 05:47:52;;;;;;;1.53;1.43;;;-1.70;99.90;;;;;;5015586;28;20670;-84
2023/12/17 05:50:17;;;;;;;1.00;1.00;;;-1.70;99.90;;;;;;5014677;28;20669;-84
2023/12/17 05:52:43;;;;;;;1.10;1.10;;;-1.60;99.90;;;;;;5023161;28;20195;-84
2023/12/17 05:55:08;;;;;;;1.10;1.10;;;-1.60;99.90;;;;;;5035204;28;20180;-83
2023/12/17 05:57:34;;;;;;;1.00;1.00;;;-1.60;99.90;;;;;;5032951;28;20577;-84
2023/12/17 06:00:00;;;;;;;1.20;1.20;;;-1.60;99.90;;;;;;5025101;28;20185;-84
2023/12/17 06:02:26;;;;;;;1.13;1.10;;;-1.60;99.90;;;;;;5025069;28;20305;-85
2023/12/17 06:04:51;;;;;;;1.17;1.10;;;-1.60;99.90;;;;;;5025022;28;20650;-84
2023/12/17 06:07:17;;;;;;;1.10;1.10;;;-1.60;99.90;;;;;;5024896;28;20200;-84
2023/12/17 06:09:42;;;;;;;0.90;0.90;;;-1.50;99.90;;;;;;5024824;28;20271;-85
2023/12/17 06:12:08;;;;;;;1.00;1.00;;;-1.40;99.90;;;;;;5025119;28;20183;-84
2023/12/17 06:14:34;;;;;;;1.00;1.00;;;-1.50;99.90;;;;;;5025170;28;20272;-85
2023/12/17 06:17:00;;;;;;;0.90;0.90;;;-1.50;99.90;;;;;;5029723;28;20199;-83
2023/12/17 06:19:25;;;;;;;0.90;0.90;;;-1.50;99.90;;;;;;5051501;28;20187;-84
2023/12/17 06:21:51;;;;;;;0.90;0.90;;;-1.50;99.90;;;;;;5037647;28;20234;-84
2023/12/17 06:24:16;;;;;;;0.80;0.80;;;-1.50;99.90;;;;;;5037398;28;20180;-84
2023/12/17 06:26:42;;;;;;;0.90;0.90;;;-1.50;99.90;;;;;;5035659;28;20198;-85
2023/12/17 06:29:13;;;;;;;0.80;0.80;;;-1.50;99.90;;;;;;5038140;28;20187;-83
2023/12/17 06:31:40;;;;;;;0.80;0.80;;;-1.50;99.90;;;;;;5036942;28;20393;-84
2023/12/17 06:34:06;;;;;;;1.00;1.00;;;-1.60;99.90;;;;;;5035430;28;20190;-84
2023/12/17 06:36:32;;;;;;;0.90;0.90;;;-1.60;99.90;;;;;;5034073;28;20196;-85
2023/12/17 06:38:57;;;;;;;0.90;0.90;;;-1.50;99.90;;;;;;5034475;28;20199;-83
2023/12/17 06:41:23;;;;;;;1.00;1.00;;;-1.60;99.90;;;;;;5034438;28;20225;-85
2023/12/17 06:43:49;;;;;;;1.00;1.00;;;-1.50;99.90;;;;;;5034024;28;20251;-85
2023/12/17 06:46:16;;;;;;;1.00;1.00;;;-1.50;99.90;;;;;;5032462;28;20245;-85
2023/12/17 06:48:41;;;;;;;0.87;0.87;;;-1.50;99.90;;;;;;5034164;28;20176;-85
2023/12/17 06:51:07;;;;;;;0.90;0.90;;;-1.50;99.90;;;;;;5034246;28;20176;-86
2023/12/17 06:53:34;;;;;;;0.80;0.80;;;-1.50;99.90;;;;;;5034130;28;20643;-86
2023/12/17 06:56:00;;;;;;;0.90;0.90;;;-1.60;99.90;;;;;;5033858;28;20604;-83
2023/12/17 06:58:25;;;;;;;0.90;0.90;;;-1.60;99.90;;;;;;5035116;28;20184;-82
2023/12/17 07:00:51;;;;;;;0.90;0.90;;;-1.60;99.90;;;;;;5041025;28;20202;-85
2023/12/17 07:03:18;;;;;;;1.00;1.00;;;-1.60;99.90;;;;;;5037842;28;20219;-83
2023/12/17 07:05:44;;;;;;;0.90;0.90;;;-1.60;99.90;;;;;;5055992;28;20183;-83
2023/12/17 07:08:10;;;;;;;0.90;0.90;;;-1.60;99.90;;;;;;5056201;28;20184;-83
2023/12/17 07:10:35;;;;;;;0.90;0.90;;;-1.60;99.90;;;;;;5056368;28;20193;-83
2023/12/17 07:13:03;;;;;;;0.90;0.90;;;-1.60;99.90;;;;;;5051058;28;20222;-86
2023/12/17 07:15:29;;;;;;;0.90;0.90;;;-1.50;99.90;;;;;;5047920;28;20191;-83
2023/12/17 07:17:55;;;;;;;0.80;0.80;;;-1.50;99.90;;;;;;5052314;28;20402;-83
2023/12/17 07:20:20;;;;;;;0.90;0.90;;;-1.80;99.90;;;;;;5044193;28;20456;-83
2023/12/17 07:22:47;;;;;;;0.93;0.93;;;-1.40;99.90;;;;;;5044932;28;20222;-84
2023/12/17 07:25:13;;;;;;;1.00;1.00;;;-1.30;99.90;;;;;;5043013;28;20176;-82
2023/12/17 07:27:39;;;;;;;1.00;1.00;;;-1.20;99.90;;;;;;5044542;28;20187;-84
2023/12/17 07:30:05;;;;;;;0.90;0.90;;;-1.30;99.90;;;;;;5043667;28;20172;-83
2023/12/17 07:32:31;;;;;;;0.80;0.80;;;-1.40;99.90;;;;;;5034545;28;20187;-82
2023/12/17 07:34:57;;;;;;;1.00;1.00;;;-1.20;99.90;;;;;;5036729;28;20184;-82
2023/12/17 07:37:23;;;;;;;1.03;1.03;;;-1.30;99.90;;;;;;5030205;28;20247;-81
2023/12/17 07:39:49;;;;;;;1.40;1.30;;;-1.20;99.90;;;;;;5025819;28;20177;-83
2023/12/17 07:42:14;;;;;;;1.50;1.40;;;-1.20;99.90;;;;;;5029831;28;20274;-84
2023/12/17 07:44:40;;;;;;;1.10;1.10;;;-1.00;99.90;;;;;;5031280;28;20474;-84
2023/12/17 07:47:05;;;;;;;1.60;1.50;;;-1.00;99.90;;;;;;5030462;28;20231;-83
2023/12/17 07:49:31;;;;;;;1.10;1.10;;;-0.90;99.90;;;;;;5022324;28;20306;-83
2023/12/17 07:51:57;;;;;;;1.30;1.20;;;-0.80;99.90;;;;;;5035124;28;20176;-80
2023/12/17 07:54:22;;;;;;;1.00;1.00;;;-0.70;99.90;;;;;;5030982;28;20187;-83
2023/12/17 07:56:48;;;;;;;0.90;0.90;;;-0.60;99.90;;;;;;5025126;28;20314;-83
2023/12/17 07:59:13;;;;;;;1.03;1.03;;;-0.50;99.90;;;;;;5030263;28;20191;-82
2023/12/17 08:01:39;;;;;;;1.00;1.00;;;-0.40;99.90;;;;;;5027363;28;20208;-82
2023/12/17 08:04:04;;;;;;;1.17;1.17;;;-0.40;99.90;;;;;;5021073;28;20184;-81
2023/12/17 08:06:30;;;;;;;1.17;1.17;;;-0.20;99.90;;;;;;5020461;28;20200;-82
2023/12/17 08:08:56;;;;;;;0.90;0.90;;;-0.10;99.90;;;;;;5028214;28;20255;-85
2023/12/17 08:11:22;;;;;;;0.97;0.97;;;0.10;99.90;;;;;;5028056;28;20250;-82
2023/12/17 08:13:48;;;;;;;1.00;1.00;;;0.40;99.90;;;;;;5019446;28;20169;-83
2023/12/17 08:16:15;;;;;;;0.90;0.90;;;0.60;99.90;;;;;;5024971;28;20247;-86
2023/12/17 08:18:43;;;;;;;0.80;0.80;;;1.30;99.90;;;;;;5031328;28;20672;-83
2023/12/17 08:21:08;;;;;;;0.80;0.80;;;1.60;80.90;;;;;;5033777;28;20254;-83
2023/12/17 08:23:34;;;;;;;0.77;0.77;;;2.20;50.30;;;;;;5033006;28;20665;-82
2023/12/17 08:26:00;;;;;;;0.80;0.80;;;2.80;1.00;;;;;;5034020;28;20199;-82
2023/12/17 08:28:26;;;;;;;0.87;0.87;;;3.40;1.00;;;;;;5033305;28;20180;-84
2023/12/17 08:30:52;;;;;;;0.70;0.70;;;3.60;1.00;;;;;;5035148;28;20219;-83
2023/12/17 08:33:18;;;;;;;0.80;0.80;;;3.20;1.00;;;;;;5033105;28;20534;-82
2023/12/17 08:35:45;;;;;;;0.77;0.77;;;3.10;1.00;;;;;;5031767;28;20526;-82
2023/12/17 08:38:11;;;;;;;0.80;0.80;;;2.70;1.00;;;;;;5027182;28;20847;-83
2023/12/17 08:40:38;;;;;;;0.70;0.70;;;2.70;1.00;;;;;;5028757;28;20704;-83
2023/12/17 08:43:06;;;;;;;0.70;0.70;;;3.10;1.00;;;;;;5022401;28;20586;-82
2023/12/17 08:45:32;;;;;;;0.60;0.60;;;3.20;1.00;;;;;;5015700;28;20310;-83
2023/12/17 08:47:58;;;;;;;0.60;0.60;;;3.40;1.00;;;;;;5016705;28;20766;-82
2023/12/17 08:50:24;;;;;;;0.50;0.50;;;3.80;1.00;;;;;;5016703;28;20179;-83
2023/12/17 08:52:50;;;;;;;0.50;0.50;;;4.10;1.00;;;;;;5017142;28;20188;-84
2023/12/17 08:55:16;;;;;;;0.50;0.50;;;4.50;99.90;;;;;;5019977;28;20180;-82
2023/12/17 08:57:41;;;;;;;0.50;0.50;;;4.90;99.90;;;;;;5020252;28;20172;-83
2023/12/17 09:00:07;;;;;;;0.50;0.50;;;5.80;97.70;;;;;;5027474;28;20188;-85
2023/12/17 09:02:34;;;;;;;0.50;0.50;;;6.60;1.00;;;;;;5024147;28;20207;-84
2023/12/17 09:05:00;;;;;;;0.43;0.43;;;6.60;99.90;;;;;;5020354;28;20235;-83
2023/12/17 09:07:26;;;;;;;0.50;0.50;;;7.10;99.90;;;;;;5019975;28;20231;-84
2023/12/17 09:09:52;;;;;;;0.50;0.50;;;7.40;99.90;;;;;;5019543;28;20177;-83
2023/12/17 09:12:19;;;;;;;0.50;0.50;;;7.50;99.90;;;;;;5026886;28;20267;-83
2023/12/17 09:14:44;;;;;;;0.50;0.50;;;7.90;99.90;;;;;;5030534;28;20218;-83
2023/12/17 09:17:10;;;;;;;0.50;0.50;;;8.30;99.90;;;;;;5028564;28;20196;-84
2023/12/17 09:19:35;;;;;;;0.43;0.43;;;8.20;1.00;;;;;;5042898;28;20668;-83
2023/12/17 09:22:01;;;;;;;0.50;0.50;;;8.10;1.00;;;;;;5049716;28;20239;-84
2023/12/17 09:24:28;;;;;;;0.50;0.50;;;7.50;99.90;;;;;;5050819;28;20192;-82
2023/12/17 09:26:53;;;;;;;0.50;0.50;;;6.90;1.00;;;;;;5052952;28;20198;-84
2023/12/17 09:29:20;;;;;;;0.50;0.50;;;6.90;99.90;;;;;;5036993;28;20195;-84
2023/12/17 09:31:46;;;;;;;0.50;0.50;;;6.10;99.90;;;;;;5031633;28;20180;-87
2023/12/17 09:34:14;;;;;;;0.53;0.53;;;6.60;1.00;;;;;;5032788;28;20195;-81
2023/12/17 09:36:40;;;;;;;0.50;0.50;;;7.60;99.90;;;;;;5034937;28;20256;-83
2023/12/17 09:39:06;;;;;;;0.40;0.40;;;7.90;99.90;;;;;;5033931;28;20175;-83
2023/12/17 09:41:32;;;;;;;0.50;0.50;;;9.30;1.00;;;;;;5036523;28;20207;-84
2023/12/17 09:43:57;;;;;;;0.40;0.40;;;9.20;1.00;;;;;;5031595;28;20305;-84
2023/12/17 09:46:24;;;;;;;0.50;0.50;;;10.00;1.00;;;;;;5029643;28;20184;-84
2023/12/17 09:48:49;;;;;;;0.40;0.40;;;9.70;1.00;;;;;;5037421;28;20179;-83
2023/12/17 09:51:16;;;;;;;0.40;0.40;;;9.30;1.00;;;;;;5036631;28;20190;-86
2023/12/17 09:53:42;;;;;;;0.50;0.50;;;9.30;1.00;;;;;;5037518;28;20176;-84
2023/12/17 09:56:10;;;;;;;0.50;0.50;;;9.20;1.00;;;;;;5034930;28;20198;-82
2023/12/17 09:58:36;;;;;;;0.40;0.40;;;10.20;1.00;;;;;;5036141;28;20254;-83
2023/12/17 10:01:01;;;;;;;0.40;0.40;;;10.30;1.00;;;;;;5035882;28;20218;-83
2023/12/17 10:03:27;;;;;;;0.40;0.40;;;9.80;1.00;;;;;;5037856;28;20227;-84
2023/12/17 10:05:53;;;;;;;0.40;0.40;;;10.20;1.00;;;;;;5028246;28;20196;-84
2023/12/17 10:08:20;;;;;;;0.40;0.40;;;10.20;1.00;;;;;;5021727;28;20184;-83
2023/12/17 10:10:46;;;;;;;0.40;0.40;;;9.60;1.00;;;;;;5022791;28;20195;-82
2023/12/17 10:13:22;;;;;;;0.40;0.40;;;10.60;1.00;;;;;;5035123;28;20227;-82
2023/12/17 10:15:53;;;;;;;0.40;0.40;;;11.10;1.00;;;;;;5036332;28;20204;-82
2023/12/17 10:18:19;;;;;;;0.40;0.40;;;11.00;1.00;;;;;;5036957;28;20169;-83
2023/12/17 10:20:46;;;;;;;0.40;0.40;;;12.00;1.00;;;;;;5036118;28;20256;-84
2023/12/17 10:23:13;;;;;;;0.40;0.40;;;11.30;1.00;;;;;;5034052;28;20224;-84
2023/12/17 10:25:39;;;;;;;0.40;0.40;;;10.20;1.00;;;;;;5022478;28;20200;-84
2023/12/17 10:28:05;;;;;;;0.43;0.43;;;10.40;1.00;;;;;;5017429;28;20191;-89
2023/12/17 10:30:33;;;;;;;0.40;0.40;;;10.10;1.00;;;;;;5017670;28;20195;-83
2023/12/17 10:33:00;;;;;;;0.40;0.40;;;10.90;1.00;;;;;;5018541;28;20271;-84
2023/12/17 10:35:27;;;;;;;0.40;0.40;;;10.70;1.00;;;;;;5022635;28;20176;-83
2023/12/17 10:38:00;;;;;;;0.43;0.43;;;11.20;1.00;;;;;;5038561;28;20180;-84
2023/12/17 10:40:27;;;;;;;0.40;0.40;;;11.00;1.00;;;;;;5039743;28;20175;-84
2023/12/17 10:42:56;;;;;;;0.40;0.40;;;11.30;1.00;;;;;;5039451;28;20285;-84
2023/12/17 10:45:22;;;;;;;0.40;0.40;;;10.70;1.00;;;;;;5014989;28;20196;-84
2023/12/17 10:47:51;;;;;;;0.50;0.50;;;10.20;1.00;;;;;;5019532;28;20259;-85
2023/12/17 10:50:18;;;;;;;0.50;0.50;;;9.50;1.00;;;;;;5026280;28;20199;-85
2023/12/17 10:52:45;;;;;;;0.50;0.50;;;8.70;1.00;;;;;;5047442;28;20179;-83
2023/12/17 10:55:11;;;;;;;0.43;0.43;;;7.80;99.90;;;;;;5044262;28;20199;-82
2023/12/17 10:57:40;;;;;;;0.50;0.50;;;7.80;1.00;;;;;;5044891;28;20206;-84
2023/12/17 11:00:08;;;;;;;0.50;0.50;;;7.50;99.90;;;;;;5041939;28;20661;-83
2023/12/17 11:02:34;;;;;;;0.40;0.40;;;7.80;1.00;;;;;;5035343;28;20211;-85
2023/12/17 11:05:00;;;;;;;0.50;0.50;;;7.80;1.00;;;;;;5026821;28;20180;-84
2023/12/17 11:07:26;;;;;;;0.40;0.40;;;7.70;99.90;;;;;;5030512;28;20203;-85
2023/12/17 11:09:52;;;;;;;0.60;0.60;;;7.60;99.90;;;;;;5032082;28;20560;-84
2023/12/17 11:12:19;;;;;;;0.60;0.60;;;9.10;99.90;;;;;;5025593;28;20171;-84
2023/12/17 11:14:45;;;;;;;0.50;0.50;;;10.20;1.00;;;;;;5029021;28;20183;-82
2023/12/17 11:17:16;;;;;;;0.50;0.50;;;10.80;1.00;;;;;;5028838;28;20184;-83
2023/12/17 11:19:56;;;;;;;0.40;0.40;;;11.20;1.00;;;;;;5032519;28;20172;-84
2023/12/17 11:22:23;;;;;;;0.40;0.40;;;11.30;1.00;;;;;;5036696;28;20229;-87
2023/12/17 11:24:50;;;;;;;0.40;0.40;;;10.40;1.00;;;;;;5034479;28;20182;-89
2023/12/17 11:27:22;;;;;;;0.40;0.40;;;9.30;1.00;;;;;;5035816;28;20199;-89
2023/12/17 11:29:49;;;;;;;0.43;0.43;;;8.70;99.90;;;;;;5036906;28;20196;-86
2023/12/17 11:32:17;;;;;;;0.50;0.50;;;9.20;99.90;;;;;;5023910;28;20351;-85
2023/12/17 11:34:48;;;;;;;0.50;0.50;;;8.60;99.90;;;;;;5027154;28;20546;-85
2023/12/17 11:37:17;;;;;;;0.50;0.50;;;7.90;1.00;;;;;;5034758;28;20219;-85
2023/12/17 11:39:45;;;;;;;0.50;0.50;;;8.20;1.00;;;;;;5035566;28;20258;-82
2023/12/17 11:42:10;;;;;;;0.50;0.50;;;8.00;1.00;;;;;;5035201;28;20195;-84
2023/12/17 11:44:45;;;;;;;0.43;0.43;;;7.60;99.90;;;;;;5034864;28;20175;-84
2023/12/17 11:47:14;;;;;;;0.50;0.50;;;8.10;99.90;;;;;;5032765;28;20214;-84
2023/12/17 11:49:40;;;;;;;0.60;0.60;;;8.80;1.00;;;;;;5033378;28;20176;-82
2023/12/17 11:52:15;;;;;;;0.70;0.70;;;8.90;99.90;;;;;;5022122;28;20188;-84
2023/12/17 11:54:42;;;;;;;0.60;0.60;;;8.40;1.00;;;;;;5034514;28;20228;-85
2023/12/17 11:57:21;;;;;;;0.60;0.60;;;8.30;1.00;;;;;;5034418;28;20569;-83
2023/12/17 11:59:47;;;;;;;0.57;0.57;;;9.10;99.90;;;;;;5022408;28;20249;-89
2023/12/17 12:02:20;;;;;;;0.60;0.60;;;8.80;1.00;;;;;;5032919;28;20220;-90
2023/12/17 12:04:46;;;;;;;0.63;0.63;;;9.00;99.90;;;;;;5030676;28;20187;-88
2023/12/17 12:07:20;;;;;;;0.63;0.63;;;9.10;99.90;;;;;;5033045;28;20278;-91
2023/12/17 12:09:46;;;;;;;0.50;0.50;;;8.70;99.90;;;;;;5032215;28;20230;-90
2023/12/17 12:12:20;;;;;;;0.60;0.60;;;8.30;1.00;;;;;;5032042;28;20230;-85
2023/12/17 12:14:48;;;;;;;0.60;0.60;;;8.90;1.00;;;;;;5031133;28;20402;-84
2023/12/17 12:17:37;;;;;;;0.70;0.70;;;9.00;99.90;;;;;;5031413;28;20200;-87
2023/12/17 12:20:07;;;;;;;0.70;0.70;;;9.50;99.90;;;;;;5032081;28;20191;-91
2023/12/17 12:22:37;;;;;;;0.70;0.70;;;8.90;99.90;;;;;;5033407;28;20207;-88
2023/12/17 12:25:04;;;;;;;0.53;0.53;;;8.80;99.90;;;;;;5032549;28;20207;-86
2023/12/17 12:27:30;;;;;;;0.60;0.60;;;9.00;99.90;;;;;;5033377;28;20543;-88
2023/12/17 12:29:57;;;;;;;0.73;0.73;;;9.10;99.90;;;;;;5035519;28;20172;-89
2023/12/17 12:32:30;;;;;;;0.60;0.60;;;8.60;99.90;;;;;;5036910;28;20186;-88
2023/12/17 12:34:56;;;;;;;0.70;0.70;;;9.10;99.90;;;;;;5037449;28;20260;-89
2023/12/17 12:37:38;;;;;;;0.60;0.60;;;9.60;69.20;;;;;;5033603;28;20628;-88
2023/12/17 12:40:05;;;;;;;0.40;0.40;;;10.70;1.00;;;;;;5034274;28;20188;-89
2023/12/17 12:42:32;;;;;;;0.60;0.60;;;12.10;1.00;;;;;;5037442;28;20309;-88
2023/12/17 12:44:58;;;;;;;0.50;0.50;;;13.20;1.00;;;;;;5036614;28;20188;-86
2023/12/17 12:47:28;;;;;;;0.40;0.40;;;13.40;1.00;;;;;;5038254;28;20742;-92
2023/12/17 12:49:53;;;;;;;0.50;0.50;;;13.70;1.00;;;;;;5028417;28;20284;-87